Ride Results

Mountain Lagoon (30-03-2019)
Ride distance: 80.0 km

Outcomes - Mountain Lagoon (30-03-2019)
Division No. of Entries Retired / DNE Completed Withdrawn Ineligible V/O Percentage Completed
HW 16 - 12 1 - 3 75.00%
MW 33 - 25 4 - 4 75.76%
LW 24 - 22 1 - 1 91.67%
JN 8 - 8 - - - 100.00%
Totals 81 - 67 6 - 8 82.72%
Results - Mountain Lagoon (30-03-2019)
No. Rider Horse Place Time Leg Speeds Total
Km/Hr
H/R bpm
Heavyweight
39 Shaun Jones Zarafa 1 (BC) 6:25:00 13.7, 11.4 12.47 32, 41, 51 (Avg:46)
58 Heidi Wade Love In The Mist 2 6:54:00 12.8, 10.5 11.59 34, 47, 52 (Avg:49)
46 Andrew Jonkers Girilambone Comet 3 7:08:00 12.5, 10.1 11.21 32, 35, 48 (Avg:41)
14 Brian Swan Arabesque Abdul 4 7:35:00 12.5, 9.0 10.55 39, 48, 54 (Avg:51)
76 Jo Davis Jamal Desert Mist 5 7:38:00 11.7, 9.4 10.48 32, 48, 53 (Avg:50)
62 Andrew Bailey Cedar Ridge Proclaimer 6 7:39:00 11.0, 9.9 10.46 41, 48, 49 (Avg:48)
20 Susan Luthy Mystical Horizon 7 7:58:00 10.9, 9.3 10.04 50, 48, 57 (Avg:52)
44 Sue Warren Razorback Flash 8 8:15:00 11.7, 8.2 9.70 38, 49, 50 (Avg:49)
54 Joanne Aldwell Simeon Al Ashtar 9 8:44:00 10.4, 8.1 9.16 44, 48, 43 (Avg:45)
3 Ian Dreghorn Ausden Nile Prins 10 8:52:00 10.4, 7.9 9.02 42, 45, 53 (Avg:49)
81 Alex Baczocha Colo Esther 11 9:32:00 9.0, 7.7 8.39 31, 37, 48 (Avg:42)
26 Steve Finnane Bobby 12 9:47:00 9.5, 7.1 8.18 40, 48, 59 (Avg:53)
16 Stephen Deering Anzac Heart Rate L2 0:00:00 10.9 - 32, 49, 73 (Avg:61)
27 Anthony Parker Mindari Ace High Heart Rate L2 0:00:00 8.6, 7.5 - 32, 36, 72 (Avg:54)
77 Heather Nagle Aloha Dash W/D after vetting L1 0:00:00 - - 36, 45 (Avg:45)
45 Tony Warren Razorback Darcy Lame L1 0:00:00 11.7 - 32, 41 (Avg:41)
Middleweight
30 Georgia Curry Mountain Breeze Just Annallusion 1 (BC) 5:27:00 14.0, 15.3 14.68 44, 48, 48 (Avg:48)
59 Darryl King James Bonn 2 5:49:00 14.3, 13.1 13.75 40, 54, 54 (Avg:54)
71 Ian Curtis Blake's Heaven Summer Wind 3 6:01:00 13.3, 13.2 13.30 44, 42, 48 (Avg:45)
64 Tayla Hadzi Oso Diamond Dazzler 4 6:11:00 13.3, 12.5 12.94 40, 44, 50 (Avg:47)
41 Leanne Hickson Entourage Era 4 6:11:00 13.3, 12.5 12.94 35, 39, 55 (Avg:47)
32 Brad Dillon Raymar Hazeemah 6 6:14:00 12.2, 13.4 12.83 54, 44, 51 (Avg:47)
37 Emily Streckfuss Webbs Creek Starlight 7 6:25:00 13.7, 11.4 12.47 36, 40, 44 (Avg:42)
1 Imogen Carrey Charleville Cherokee Charm 8 6:40:00 13.2, 10.9 12.00 40, 48, 47 (Avg:47)
65 Amanda Kettlewell Oso Lu Lu 9 7:07:00 11.7, 10.7 11.24 40, 49, 48 (Avg:48)
33 Cody Holloway Raymar Amira 10 7:14:00 12.2, 10.0 11.06 48, 40, 48 (Avg:44)
28 Jennifer Gilbertson All Aglow At Webbscreek 11 7:34:00 10.4, 10.6 10.57 36, 40, 59 (Avg:49)
40 Jennifer Rogers Shazam 12 7:34:05 11.8, 9.5 10.57 40, 41, 48 (Avg:44)
11 Debbie Pevy Galaxy Mi 13 7:34:10 11.8, 9.5 10.57 44, 43, 51 (Avg:47)
78 Erica Allan Waugoola Creek Onyx 14 7:38:05 11.7, 9.4 10.48 44, 43, 46 (Avg:44)
15 Rodney Curry Lydia Te 14 7:38:05 11.0, 9.9 10.48 38, 46, 50 (Avg:48)
63 Annette Bailey Bullio Charlotte 16 7:39:00 11.0, 9.9 10.46 32, 41, 44 (Avg:42)
18 Duncan McLaughlin Splitters Creek Icelandic 17 7:46:00 11.0, 9.6 10.30 48, 40, 58 (Avg:49)
8 Geraldine Stuart Kolahai Jailahn 18 7:50:05 12.2, 8.7 10.21 40, 44, 60 (Avg:52)
69 Tahlia Franke Oso Florin 19 7:51:00 10.9, 9.5 10.19 32, 44, 49 (Avg:46)
47 Clare Feary Equilo 20 8:07:00 11.3, 8.6 9.86 47, 48, 48 (Avg:48)
51 April Newman Die Kinder Junrei 20 8:07:00 11.3, 8.6 9.86 43, 44, 46 (Avg:45)
60 Fiona Meller Malu Vale Embers 22 8:52:05 9.7, 8.3 9.02 32, 37, 40 (Avg:38)
38 Linda Bracken Princess Shakira 23 8:55:00 9.7, 8.3 8.97 52, 52, 56 (Avg:54)
9 Raymond Griffiths Cherox Shaadin 24 9:04:00 9.0, 8.5 8.82 44, 46, 59 (Avg:52)
80 Phoebe Baczocha Colo Eclipse 25 9:42:00 9.0, 7.5 8.25 39, 54, 52 (Avg:53)
19 Narelle Bush Rowallan Seek Lame L1 0:00:00 11.3 - 36, 39 (Avg:39)
35 Leisa Courtman Zimba Lame L1 0:00:00 7.5 - 37, 42 (Avg:42)
7 Thomas Hermann Wasabi Lame L1 0:00:00 12.1 - 41, 43 (Avg:43)
36 Tracey Morley Pulse Nasir W/D after vetting L1 0:00:00 - - 40, 48 (Avg:48)
75 Kate Pilley Aloha Zulm W/D after vetting L1 0:00:00 - - 32, 37 (Avg:37)
34 Garry Weis Raymar Jamal Lame L1 0:00:00 12.3 - 42, 45 (Avg:45)
12 Kristie Wright Oso Zoltan W/D on track L1 0:00:00 - - 36, 50 (Avg:50)
61 Sean Griffin Taku W/D after vetting P/R 0:00:00 - - 32
Lightweight
48 Allix Jones Shellal Blue 1 (BC) 5:47:00 14.3, 13.3 13.83 32, 44, 60 (Avg:52)
72 Fia Hasko-Stewart Blake's Heaven Venus 2 5:49:05 14.4, 13.1 13.75 36, 48, 51 (Avg:49)
43 Simon Bain Akifa Farras Ice 3 6:26:00 13.4, 11.5 12.44 40, 49, 56 (Avg:52)
42 Tiana Baldock Pumba 4 6:36:00 12.9, 11.3 12.12 40, 44, 47 (Avg:45)
56 Julie Hooper A'Landell Enigma 5 6:37:00 12.9, 11.3 12.09 38, 40, 49 (Avg:44)
57 Vetea Facchini Owata Park Amirah 6 6:54:00 12.8, 10.5 11.59 46, 45, 51 (Avg:48)
68 Emma Dimech Oso Solstice Star 7 7:07:05 11.7, 10.7 11.24 38, 44, 49 (Avg:46)
10 Sue Todd Shakari Bear 8 7:08:00 12.5, 10.1 11.21 36, 48, 53 (Avg:50)
4 Alison Hegarty Dianna Prince 9 7:35:00 12.9, 8.8 10.55 40, 48, 48 (Avg:48)
31 Amanda Myers Grattai Station Traveller 10 7:35:05 11.7, 9.5 10.55 80, 51, 57 (Avg:54)
24 Makayla Circosta Tamlyn PL Amira Shari 11 7:38:00 12.4, 9.0 10.48 37, 48, 52 (Avg:50)
23 Isabella Circosta Ropa Park Bella Shakila 12 7:38:05 12.4, 9.0 10.48 38, 52, 41 (Avg:46)
70 Talea Hasko-Stewart Blake's Heaven Bombora 13 7:50:05 11.0, 9.5 10.21 38, 42, 55 (Avg:48)
73 Celia Hodgson Blake's Heaven Hiraani 13 7:50:05 11.0, 9.5 10.21 32, 38, 48 (Avg:43)
66 Jana Kupper Oso Rioja 13 7:50:05 10.8, 9.6 10.21 44, 44, 57 (Avg:50)
22 Susan Woodward Diamond R Carbo 16 7:52:00 10.4, 9.8 10.17 60, 50, 58 (Avg:54)
17 Dianne Luker Sallydale Wings on Fire 17 7:59:00 11.3, 8.9 10.02 32, 44, 45 (Avg:44)
74 Caroline Bouvresse Box Hill Jackpot 18 8:13:00 10.5, 9.0 9.74 32, 38, 50 (Avg:44)
50 Carola Maier Mercie 18 8:13:00 10.7, 8.8 9.74 48, 48, 52 (Avg:50)
49 Sara Worner Tequila 18 8:13:00 10.7, 8.8 9.74 38, 40, 44 (Avg:42)
53 Raelene Whitfield Wootton Charismatic 21 8:44:00 10.4, 8.1 9.16 36, 48, 48 (Avg:48)
52 Meri Lategan Malvern Copperfield 22 8:49:00 10.4, 7.9 9.07 40, 44, 44 (Avg:44)
29 Faith Robinson Sassy Grace W/D on track L2 0:00:00 - - 32, 48, 44 (Avg:46)
67 Sorsha Stuart-Rokvic Oso Meeka Lame L1 0:00:00 10.7 - 48, 50 (Avg:50)
Junior
2 Sophie Ramsay Autumnight Goldmine 1 (BC) 5:27:00 15.6, 13.7 14.68 36, 44, 53 (Avg:48)
5 Mackensie Daley Nirvana 2 6:15:00 13.3, 12.3 12.80 32, 44, 44 (Avg:44)
55 Madison Hooper Night Fire 3 6:37:00 12.9, 11.3 12.09 34, 40, 54 (Avg:47)
25 Levi Robinson Karumba Beamish 3 6:37:00 13.1, 11.2 12.09 36, 54, 52 (Avg:53)
79 Jayme Cooper Jupiter Sharara 5 6:57:00 11.3, 11.6 11.51 40, 44, 55 (Avg:49)
13 Tahnaya Mercieca Orizhan 6 7:08:10 10.9, 11.4 11.21 52, 48, 55 (Avg:51)
6 Emma Cole Kismietta Spa 7 7:50:00 10.8, 9.6 10.21 50, 43, 45 (Avg:44)
21 Brooke Luthy Mystical Knight 8 7:58:00 10.9, 9.3 10.04 36, 45, 56 (Avg:50)